createdAt,value
2023-03-24T00:00:33.089Z,1.90
2023-03-24T00:05:38.772Z,3.95
2023-03-24T00:10:42.818Z,4.82
2023-03-24T00:15:48.932Z,3.45
2023-03-24T00:20:58.991Z,2.55
2023-03-24T00:26:03.782Z,3.95
2023-03-24T00:31:09.283Z,3.22
2023-03-24T00:36:14.154Z,4.10
2023-03-24T00:41:20.199Z,2.05
2023-03-24T00:46:30.046Z,2.17
2023-03-24T00:51:37.799Z,3.45
2023-03-24T00:56:43.787Z,2.20
2023-03-24T01:01:47.293Z,8.07
2023-03-24T01:06:52.633Z,2.58
2023-03-24T01:11:56.234Z,1.85
2023-03-24T01:16:59.999Z,1.85
2023-03-24T01:22:04.719Z,1.38
2023-03-24T01:27:08.082Z,1.55
2023-03-24T01:32:11.408Z,2.75
2023-03-24T01:37:16.013Z,1.60
2023-03-24T01:42:20.864Z,1.60
2023-03-24T01:47:24.186Z,1.38
2023-03-24T01:52:31.944Z,1.10
2023-03-24T01:57:42.683Z,1.17
2023-03-24T02:08:06.266Z,1.90
2023-03-24T02:13:10.449Z,2.22
2023-03-24T02:18:21.149Z,1.42
2023-03-24T02:24:04.804Z,2.08
2023-03-24T02:29:31.638Z,1.08
2023-03-24T02:35:10.719Z,1.17
2023-03-24T02:40:27.360Z,1.58
2023-03-24T02:45:37.672Z,1.20
2023-03-24T02:50:48.875Z,2.30
2023-03-24T02:55:57.368Z,1.13
2023-03-24T03:01:06.567Z,1.42
2023-03-24T03:06:15.886Z,1.63
2023-03-24T03:11:20.733Z,0.95
2023-03-24T03:16:26.747Z,1.73
2023-03-24T03:21:40.291Z,1.33
2023-03-24T03:26:47.319Z,0.77
2023-03-24T03:31:59.755Z,1.17
2023-03-24T03:37:13.519Z,2.38
2023-03-24T03:42:18.878Z,3.65
2023-03-24T03:47:23.265Z,2.25
2023-03-24T03:52:26.644Z,1.60
2023-03-24T03:57:31.713Z,1.40
2023-03-24T04:02:48.284Z,1.05
2023-03-24T04:08:08.977Z,2.03
2023-03-24T04:13:26.911Z,2.38
2023-03-24T04:18:43.770Z,2.65
2023-03-24T04:23:56.601Z,2.72
2023-03-24T04:29:09.575Z,1.73
2023-03-24T04:34:26.735Z,2.42
2023-03-24T04:39:32.172Z,1.27
2023-03-24T04:44:38.152Z,0.70
2023-03-24T04:49:41.667Z,1.65
2023-03-24T04:54:48.110Z,1.00
2023-03-24T05:00:01.651Z,2.45
2023-03-24T05:05:05.378Z,2.13
2023-03-24T05:10:09.590Z,2.92
2023-03-24T05:15:15.897Z,2.58
2023-03-24T05:20:19.601Z,2.30
2023-03-24T05:25:24.051Z,3.05
2023-03-24T05:30:29.460Z,1.95
2023-03-24T05:35:32.847Z,1.67
2023-03-24T05:40:37.394Z,4.78
2023-03-24T05:45:42.196Z,2.47
2023-03-24T05:50:45.602Z,1.92
2023-03-24T05:55:48.871Z,2.30
2023-03-24T06:00:56.446Z,6.68
2023-03-24T06:06:01.247Z,3.30
2023-03-24T06:11:05.009Z,1.33
2023-03-24T06:16:11.463Z,2.58
2023-03-24T06:21:18.629Z,2.95
2023-03-24T06:26:21.883Z,1.27
2023-03-24T06:31:29.708Z,1.95
2023-03-24T06:36:34.731Z,2.53
2023-03-24T06:41:38.453Z,1.75
2023-03-24T06:46:46.073Z,2.72
2023-03-24T06:51:53.160Z,2.72
2023-03-24T06:56:56.697Z,2.38
2023-03-24T07:02:01.500Z,2.75
2023-03-24T07:07:27.781Z,2.47
2023-03-24T07:12:29.819Z,3.42
2023-03-24T07:17:36.897Z,2.67
2023-03-24T07:22:40.331Z,2.42
2023-03-24T07:27:47.187Z,2.72
2023-03-24T07:32:52.127Z,3.00
2023-03-24T07:37:59.108Z,2.45
2023-03-24T07:43:10.596Z,3.97
2023-03-24T07:48:17.141Z,2.13
2023-03-24T07:53:24.241Z,3.28
2023-03-24T07:58:27.506Z,3.65
2023-03-24T08:03:34.356Z,3.88
2023-03-24T08:08:38.384Z,4.82
2023-03-24T08:13:41.840Z,5.05
2023-03-24T08:18:46.556Z,3.95
2023-03-24T08:23:51.311Z,3.22
2023-03-24T08:28:57.084Z,4.38
2023-03-24T08:34:01.750Z,4.85
2023-03-24T08:39:08.275Z,3.20
2023-03-24T08:44:15.685Z,4.05
2023-03-24T08:49:21.315Z,6.07
2023-03-24T08:54:24.876Z,3.75
2023-03-24T08:59:28.183Z,5.03
2023-03-24T09:04:33.130Z,6.93
2023-03-24T09:09:37.982Z,3.35
2023-03-24T09:14:43.741Z,3.00
2023-03-24T09:19:51.251Z,6.93
2023-03-24T09:24:57.319Z,1.23
2023-03-24T09:30:02.380Z,3.83
2023-03-24T09:35:08.959Z,1.40
2023-03-24T09:40:21.889Z,2.25
2023-03-24T09:45:27.861Z,1.00
2023-03-24T09:50:37.161Z,0.63
2023-03-24T10:01:18.538Z,1.92
2023-03-24T10:06:28.075Z,1.10
2023-03-24T10:11:40.384Z,1.13
2023-03-24T10:16:54.103Z,0.77
2023-03-24T10:22:12.079Z,1.23
2023-03-24T10:27:25.487Z,1.10
2023-03-24T10:32:34.965Z,0.60
2023-03-24T10:37:42.415Z,5.47
2023-03-24T10:42:49.002Z,0.45
2023-03-24T10:47:58.145Z,1.30
2023-03-24T10:53:10.264Z,0.77
2023-03-24T10:58:22.149Z,2.40
2023-03-24T11:03:31.505Z,0.63
2023-03-24T11:09:19.518Z,1.02
2023-03-24T11:14:30.475Z,0.30
2023-03-24T11:19:39.472Z,0.68
2023-03-24T11:24:55.347Z,1.10
2023-03-24T11:30:04.382Z,4.10
2023-03-24T11:35:29.449Z,0.50
2023-03-24T11:40:53.883Z,0.35
2023-03-24T11:46:03.896Z,0.68
2023-03-24T11:51:12.312Z,0.52
2023-03-24T11:56:26.613Z,0.20
2023-03-24T12:01:38.023Z,2.00
2023-03-24T12:06:56.247Z,0.93
2023-03-24T12:12:19.617Z,5.72
2023-03-24T12:17:25.659Z,1.30
2023-03-24T12:23:02.335Z,0.43
2023-03-24T12:28:57.406Z,0.35
2023-03-24T12:34:14.369Z,0.22
2023-03-24T12:39:29.535Z,0.15
2023-03-24T12:45:09.119Z,0.30
2023-03-24T12:50:25.697Z,0.38
2023-03-24T12:55:37.893Z,0.10
2023-03-24T13:00:47.687Z,0.30
2023-03-24T13:06:10.971Z,0.17
2023-03-24T13:11:33.293Z,0.20
2023-03-24T13:16:42.655Z,1.05
2023-03-24T13:21:48.383Z,0.55
2023-03-24T13:26:59.252Z,0.22
2023-03-24T13:32:09.155Z,0.35
2023-03-24T13:37:16.958Z,0.25
2023-03-24T13:42:34.660Z,0.20
2023-03-24T13:47:57.970Z,0.10
2023-03-24T13:53:08.697Z,0.20
2023-03-24T13:58:19.785Z,1.10
2023-03-24T14:03:36.903Z,0.20
2023-03-24T14:08:55.518Z,1.27
2023-03-24T14:14:07.779Z,0.20
2023-03-24T14:19:27.662Z,0.10
2023-03-24T14:24:33.001Z,0.75
2023-03-24T14:29:40.489Z,0.22
2023-03-24T14:34:54.224Z,0.22
2023-03-24T14:40:02.699Z,0.10
2023-03-24T14:45:07.710Z,0.90
2023-03-24T14:50:23.652Z,0.20
2023-03-24T14:55:28.134Z,1.50
2023-03-24T15:00:37.222Z,0.22
2023-03-24T15:05:41.967Z,0.30
2023-03-24T15:10:50.708Z,0.35
2023-03-24T15:15:54.545Z,0.20
2023-03-24T15:20:59.370Z,0.20
2023-03-24T15:26:02.755Z,0.22
2023-03-24T15:31:08.084Z,0.30
2023-03-24T15:36:21.227Z,0.75
2023-03-24T15:41:24.740Z,1.55
2023-03-24T15:46:30.952Z,0.85
2023-03-24T15:51:54.029Z,0.30
2023-03-24T15:57:15.849Z,0.40
2023-03-24T16:02:28.602Z,2.35
2023-03-24T16:07:37.728Z,0.75
2023-03-24T16:12:41.022Z,1.65
2023-03-24T16:17:46.511Z,1.65
2023-03-24T16:22:51.274Z,0.30
2023-03-24T16:27:54.913Z,0.50
2023-03-24T16:32:58.789Z,0.65
2023-03-24T16:38:03.600Z,0.40
2023-03-24T16:43:07.106Z,0.85
2023-03-24T16:48:11.578Z,0.40
2023-03-24T16:53:17.755Z,0.38
2023-03-24T16:58:21.047Z,2.05
2023-03-24T17:03:24.616Z,0.77
2023-03-24T17:08:29.477Z,0.70
2023-03-24T17:13:32.714Z,0.82
2023-03-24T17:18:41.124Z,0.47
2023-03-24T17:23:49.433Z,0.90
2023-03-24T17:28:54.200Z,0.65
2023-03-24T17:33:59.164Z,0.75
2023-03-24T17:39:11.395Z,1.67
2023-03-24T17:44:15.640Z,0.60
2023-03-24T17:49:18.956Z,8.68
2023-03-24T17:54:25.529Z,10.68
2023-03-24T17:59:29.145Z,10.25
2023-03-24T18:04:32.948Z,13.07
2023-03-24T18:09:37.966Z,5.63
2023-03-24T18:14:44.866Z,7.68
2023-03-24T18:19:48.176Z,5.05
2023-03-24T18:24:54.340Z,12.68
2023-03-24T18:29:57.783Z,3.97
2023-03-24T18:35:02.408Z,7.07
2023-03-24T18:40:11.134Z,6.70
2023-03-24T18:45:17.541Z,25.15
2023-03-24T18:50:20.976Z,15.40
2023-03-24T18:55:26.775Z,9.35
2023-03-24T19:00:30.093Z,6.30
2023-03-24T19:05:33.975Z,8.93
2023-03-24T19:10:39.255Z,5.55
2023-03-24T19:15:45.841Z,15.70
2023-03-24T19:20:49.396Z,3.30
2023-03-24T19:25:55.200Z,23.75
2023-03-24T19:30:59.513Z,20.73
2023-03-24T19:36:02.922Z,7.40
2023-03-24T19:41:09.535Z,7.88
2023-03-24T19:46:13.656Z,11.45
2023-03-24T19:51:17.159Z,8.90
2023-03-24T19:56:22.851Z,10.20
2023-03-24T20:01:26.372Z,14.50
2023-03-24T20:06:30.138Z,9.40
2023-03-24T20:11:35.574Z,7.90
2023-03-24T20:16:38.916Z,11.18
2023-03-24T20:21:42.252Z,29.30
2023-03-24T20:26:48.422Z,21.27
2023-03-24T20:31:52.414Z,13.75
2023-03-24T20:36:56.129Z,13.23
2023-03-24T20:42:06.462Z,43.40
2023-03-24T20:47:10.183Z,11.30
2023-03-24T20:52:14.401Z,11.18
2023-03-24T20:57:20.314Z,5.43
2023-03-24T21:02:23.853Z,8.23
2023-03-24T21:07:27.899Z,6.32
2023-03-24T21:12:32.663Z,8.02
2023-03-24T21:17:36.018Z,6.57
2023-03-24T21:22:47.777Z,6.95
2023-03-24T21:27:52.607Z,4.95
2023-03-24T21:32:57.975Z,6.65
2023-03-24T21:38:01.408Z,9.48
2023-03-24T21:43:06.838Z,10.50
2023-03-24T21:48:14.168Z,5.57
2023-03-24T21:53:19.432Z,8.40
2023-03-24T21:58:27.494Z,13.98
2023-03-24T22:03:34.635Z,7.60
2023-03-24T22:08:39.080Z,10.55
2023-03-24T22:13:43.961Z,6.30
2023-03-24T22:18:47.841Z,2.40
2023-03-24T22:23:51.098Z,6.65
2023-03-24T22:28:56.267Z,4.60
2023-03-24T22:34:02.145Z,5.80
2023-03-24T22:39:05.811Z,4.15
2023-03-24T22:44:10.512Z,3.15
2023-03-24T22:49:14.030Z,6.28
2023-03-24T22:54:18.782Z,5.15
2023-03-24T22:59:24.706Z,3.67
2023-03-24T23:04:27.982Z,2.78
2023-03-24T23:09:31.346Z,11.02
2023-03-24T23:14:38.269Z,21.50
2023-03-24T23:19:41.686Z,8.88
2023-03-24T23:24:45.184Z,13.32
2023-03-24T23:29:50.376Z,8.13
2023-03-24T23:34:53.966Z,8.20
2023-03-24T23:39:57.987Z,5.00
2023-03-24T23:45:03.025Z,6.60
2023-03-24T23:50:08.076Z,1.85
2023-03-24T23:55:12.344Z,3.75
